createdAt,value
2023-02-23T00:01:33.603Z,4.60
2023-02-23T00:04:07.355Z,4.50
2023-02-23T00:06:41.485Z,5.80
2023-02-23T00:09:23.628Z,4.70
2023-02-23T00:11:58.940Z,5.10
2023-02-23T00:14:32.782Z,4.90
2023-02-23T00:17:11.122Z,4.60
2023-02-23T00:19:45.192Z,4.50
2023-02-23T00:22:18.716Z,4.70
2023-02-23T00:24:52.511Z,4.90
2023-02-23T00:27:26.143Z,4.70
2023-02-23T00:29:59.645Z,4.50
2023-02-23T00:32:33.390Z,4.60
2023-02-23T00:35:12.003Z,4.60
2023-02-23T00:37:46.769Z,4.60
2023-02-23T00:40:24.544Z,4.60
2023-02-23T00:42:58.799Z,4.60
2023-02-23T00:45:34.378Z,5.00
2023-02-23T00:48:11.023Z,4.50
2023-02-23T00:50:46.389Z,4.40
2023-02-23T00:53:20.274Z,5.40
2023-02-23T00:55:54.280Z,4.60
2023-02-23T00:58:28.978Z,4.50
2023-02-23T01:01:02.971Z,4.80
2023-02-23T01:03:36.417Z,4.30
2023-02-23T01:06:14.029Z,5.10
2023-02-23T01:08:50.336Z,4.60
2023-02-23T01:11:31.288Z,4.50
2023-02-23T01:14:05.554Z,4.90
2023-02-23T01:16:40.117Z,4.80
2023-02-23T01:19:14.891Z,4.10
2023-02-23T01:21:48.887Z,4.90
2023-02-23T01:24:22.516Z,5.40
2023-02-23T01:26:56.512Z,4.50
2023-02-23T01:29:30.485Z,4.60
2023-02-23T01:32:05.023Z,4.00
2023-02-23T01:34:39.043Z,5.30
2023-02-23T01:37:12.658Z,4.40
2023-02-23T01:39:46.148Z,5.80
2023-02-23T01:42:19.516Z,5.50
2023-02-23T01:45:24.249Z,4.70
2023-02-23T01:48:02.743Z,5.40
2023-02-23T01:50:44.440Z,4.40
2023-02-23T01:53:22.167Z,4.70
2023-02-23T01:55:59.381Z,4.90
2023-02-23T01:58:35.041Z,5.30
2023-02-23T02:01:09.210Z,5.30
2023-02-23T02:03:45.975Z,5.30
2023-02-23T02:06:23.837Z,4.70
2023-02-23T02:09:06.704Z,4.80
2023-02-23T02:11:45.033Z,4.70
2023-02-23T02:14:24.046Z,4.90
2023-02-23T02:17:25.817Z,5.40
2023-02-23T02:20:33.413Z,5.60
2023-02-23T02:23:36.984Z,5.10
2023-02-23T02:26:21.983Z,5.60
2023-02-23T02:29:18.736Z,4.70
2023-02-23T02:32:35.367Z,5.00
2023-02-23T02:35:34.859Z,5.50
2023-02-23T02:38:27.826Z,5.30
2023-02-23T02:41:12.406Z,5.40
2023-02-23T02:43:57.983Z,5.20
2023-02-23T02:46:37.215Z,5.20
2023-02-23T02:49:18.831Z,5.70
2023-02-23T02:51:58.666Z,5.50
2023-02-23T02:54:39.416Z,5.70
2023-02-23T02:57:15.357Z,4.90
2023-02-23T03:00:07.896Z,5.30
2023-02-23T03:03:01.222Z,5.60
2023-02-23T03:06:04.770Z,6.00
2023-02-23T03:09:04.048Z,5.60
2023-02-23T03:11:59.009Z,6.40
2023-02-23T03:14:58.684Z,5.90
2023-02-23T03:18:01.320Z,6.00
2023-02-23T03:21:02.124Z,5.50
2023-02-23T03:24:03.024Z,6.60
2023-02-23T03:27:00.213Z,6.00
2023-02-23T03:29:56.600Z,6.10
2023-02-23T03:32:54.196Z,5.70
2023-02-23T03:35:51.170Z,5.60
2023-02-23T03:38:52.156Z,6.10
2023-02-23T03:41:45.920Z,6.20
2023-02-23T03:44:44.054Z,5.90
2023-02-23T03:47:37.729Z,6.10
2023-02-23T03:50:36.356Z,6.60
2023-02-23T03:53:29.511Z,6.20
2023-02-23T03:56:23.417Z,6.30
2023-02-23T03:59:18.133Z,6.70
2023-02-23T04:02:14.456Z,5.90
2023-02-23T04:05:07.792Z,6.20
2023-02-23T04:08:01.164Z,5.60
2023-02-23T04:10:54.656Z,5.50
2023-02-23T04:13:31.743Z,5.10
2023-02-23T04:16:07.282Z,6.30
2023-02-23T04:18:42.965Z,5.90
2023-02-23T04:21:16.426Z,5.30
2023-02-23T04:23:50.423Z,5.50
2023-02-23T04:26:24.284Z,6.00
2023-02-23T04:28:58.065Z,5.40
2023-02-23T04:31:32.133Z,4.80
2023-02-23T04:34:06.341Z,5.80
2023-02-23T04:36:41.028Z,5.40
2023-02-23T04:39:14.702Z,6.10
2023-02-23T04:41:49.164Z,5.80
2023-02-23T04:44:22.975Z,5.00
2023-02-23T04:46:57.872Z,5.60
2023-02-23T04:49:48.939Z,5.50
2023-02-23T04:52:22.583Z,4.30
2023-02-23T04:54:56.412Z,4.90
2023-02-23T04:57:30.734Z,5.10
2023-02-23T05:00:05.525Z,4.70
2023-02-23T05:02:39.009Z,5.00
2023-02-23T05:05:13.391Z,5.00
2023-02-23T05:07:46.772Z,5.90
2023-02-23T05:10:20.969Z,4.80
2023-02-23T05:12:55.293Z,4.80
2023-02-23T05:15:29.141Z,4.90
2023-02-23T05:18:02.647Z,6.10
2023-02-23T05:20:36.127Z,5.20
2023-02-23T05:23:10.178Z,6.00
2023-02-23T05:25:43.866Z,4.80
2023-02-23T05:28:17.780Z,5.30
2023-02-23T05:30:51.400Z,5.30
2023-02-23T05:33:25.297Z,4.90
2023-02-23T05:35:59.184Z,5.60
2023-02-23T05:38:33.276Z,5.30
2023-02-23T05:41:10.919Z,4.40
2023-02-23T05:43:44.541Z,5.10
2023-02-23T05:46:21.913Z,5.60
2023-02-23T05:48:59.491Z,4.70
2023-02-23T05:51:34.457Z,4.10
2023-02-23T05:54:08.528Z,4.50
2023-02-23T05:56:42.441Z,4.60
2023-02-23T05:59:17.642Z,5.40
2023-02-23T06:01:51.708Z,5.40
2023-02-23T06:04:25.268Z,4.50
2023-02-23T06:06:59.370Z,5.00
2023-02-23T06:09:33.328Z,5.90
2023-02-23T06:12:07.977Z,5.20
2023-02-23T06:14:41.844Z,5.10
2023-02-23T06:17:15.509Z,4.80
2023-02-23T06:19:49.324Z,5.20
2023-02-23T06:22:23.374Z,6.00
2023-02-23T06:24:57.399Z,5.20
2023-02-23T06:27:30.845Z,4.70
2023-02-23T06:30:04.478Z,5.70
2023-02-23T06:32:38.525Z,4.60
2023-02-23T06:35:15.625Z,6.30
2023-02-23T06:37:49.294Z,4.50
2023-02-23T06:40:23.739Z,5.30
2023-02-23T06:42:57.770Z,5.00
2023-02-23T06:45:32.149Z,5.30
2023-02-23T06:48:06.026Z,5.70
2023-02-23T06:50:39.622Z,5.00
2023-02-23T06:53:13.139Z,5.20
2023-02-23T06:55:46.694Z,5.40
2023-02-23T06:58:20.646Z,5.10
2023-02-23T07:00:56.704Z,5.20
2023-02-23T07:03:30.470Z,5.60
2023-02-23T07:06:06.060Z,5.50
2023-02-23T07:08:39.720Z,5.00
2023-02-23T07:11:16.065Z,6.20
2023-02-23T07:13:49.765Z,5.60
2023-02-23T07:16:24.601Z,5.50
2023-02-23T07:18:58.550Z,5.60
2023-02-23T07:21:33.642Z,5.40
2023-02-23T07:24:07.817Z,6.00
2023-02-23T07:26:44.112Z,5.50
2023-02-23T07:29:18.601Z,5.60
2023-02-23T07:31:52.444Z,5.40
2023-02-23T07:34:26.213Z,6.00
2023-02-23T07:36:59.834Z,6.20
2023-02-23T07:39:33.984Z,6.60
2023-02-23T07:42:08.170Z,5.90
2023-02-23T07:44:41.920Z,5.30
2023-02-23T07:47:15.509Z,6.50
2023-02-23T07:49:49.351Z,5.80
2023-02-23T07:52:23.531Z,5.60
2023-02-23T07:54:58.088Z,5.40
2023-02-23T07:57:31.698Z,5.40
2023-02-23T08:00:06.683Z,5.40
2023-02-23T08:02:46.813Z,6.00
2023-02-23T08:05:20.656Z,6.50
2023-02-23T08:07:54.448Z,5.70
2023-02-23T08:10:28.278Z,6.70
2023-02-23T08:13:03.122Z,6.20
2023-02-23T08:15:37.221Z,6.50
2023-02-23T08:18:11.754Z,6.00
2023-02-23T08:20:45.820Z,5.80
2023-02-23T08:23:19.765Z,6.00
2023-02-23T08:25:54.750Z,6.40
2023-02-23T08:28:28.404Z,6.40
2023-02-23T08:31:02.154Z,6.60
2023-02-23T08:33:36.690Z,7.80
2023-02-23T08:36:11.414Z,6.00
2023-02-23T08:38:45.219Z,6.80
2023-02-23T08:41:19.306Z,6.10
2023-02-23T08:43:53.153Z,7.50
2023-02-23T08:46:27.072Z,6.50
2023-02-23T08:49:01.308Z,6.50
2023-02-23T08:51:36.008Z,6.70
2023-02-23T08:54:15.204Z,6.90
2023-02-23T08:56:49.304Z,7.80
2023-02-23T08:59:23.243Z,7.30
2023-02-23T09:02:16.260Z,6.20
2023-02-23T09:04:50.595Z,6.10
2023-02-23T09:07:25.334Z,6.60
2023-02-23T09:10:00.002Z,6.00
2023-02-23T09:12:33.840Z,6.70
2023-02-23T09:15:08.743Z,6.50
2023-02-23T09:17:45.194Z,7.40
2023-02-23T09:20:20.176Z,7.80
2023-02-23T09:22:53.878Z,7.20
2023-02-23T09:25:29.592Z,7.60
2023-02-23T09:28:03.323Z,7.60
2023-02-23T09:30:37.647Z,7.90
2023-02-23T09:33:11.445Z,7.70
2023-02-23T09:35:45.234Z,8.30
2023-02-23T09:38:19.324Z,7.50
2023-02-23T09:40:55.397Z,7.20
2023-02-23T09:43:37.978Z,7.40
2023-02-23T09:46:24.112Z,7.20
2023-02-23T09:49:02.869Z,6.10
2023-02-23T09:51:43.453Z,7.50
2023-02-23T09:54:19.653Z,7.70
2023-02-23T09:56:56.640Z,7.40
2023-02-23T09:59:31.325Z,8.10
2023-02-23T10:02:15.273Z,7.10
2023-02-23T10:04:51.391Z,7.10
2023-02-23T10:07:36.765Z,8.00
2023-02-23T10:10:23.691Z,8.80
2023-02-23T10:13:10.117Z,7.90
2023-02-23T10:15:51.982Z,8.30
2023-02-23T10:18:46.175Z,8.00
2023-02-23T10:21:30.054Z,7.70
2023-02-23T10:24:09.566Z,7.20
2023-02-23T10:26:49.467Z,7.10
2023-02-23T10:29:28.856Z,8.20
2023-02-23T10:32:07.539Z,7.70
2023-02-23T10:34:42.929Z,7.90
2023-02-23T10:37:18.933Z,7.40
2023-02-23T10:39:53.096Z,7.80
2023-02-23T10:42:30.338Z,7.70
2023-02-23T10:45:04.463Z,7.90
2023-02-23T10:47:39.718Z,8.00
2023-02-23T10:50:15.296Z,8.30
2023-02-23T10:52:52.929Z,8.00
2023-02-23T10:55:30.363Z,8.00
2023-02-23T10:58:17.262Z,8.90
2023-02-23T11:00:59.171Z,6.90
2023-02-23T11:03:37.935Z,8.70
2023-02-23T11:09:18.364Z,7.10
2023-02-23T11:12:03.082Z,8.50
2023-02-23T11:14:37.303Z,8.80
2023-02-23T11:17:28.783Z,8.00
2023-02-23T11:20:08.612Z,9.30
2023-02-23T11:22:44.861Z,8.60
2023-02-23T11:25:36.300Z,9.10
2023-02-23T11:28:18.883Z,7.20
2023-02-23T11:30:53.252Z,9.30
2023-02-23T11:33:31.846Z,8.30
2023-02-23T11:36:27.810Z,8.00
2023-02-23T11:39:22.419Z,8.20
2023-02-23T11:42:18.322Z,8.10
2023-02-23T11:45:07.744Z,8.60
2023-02-23T11:47:49.653Z,7.90
2023-02-23T11:50:33.089Z,8.60
2023-02-23T11:53:14.089Z,8.70
2023-02-23T11:55:55.242Z,8.50
2023-02-23T11:58:36.188Z,7.90
2023-02-23T12:01:13.835Z,7.80
2023-02-23T12:03:51.737Z,6.60
2023-02-23T12:06:34.338Z,7.30
2023-02-23T12:09:21.390Z,6.80
2023-02-23T12:12:00.863Z,7.60
2023-02-23T12:14:41.779Z,7.50
2023-02-23T12:17:23.530Z,7.50
2023-02-23T12:20:02.109Z,7.90
2023-02-23T12:25:23.527Z,7.60
2023-02-23T12:28:18.100Z,7.90
2023-02-23T12:30:57.649Z,6.30
2023-02-23T12:33:40.182Z,6.60
2023-02-23T12:36:26.881Z,6.70
2023-02-23T12:39:06.295Z,7.20
2023-02-23T12:41:45.486Z,7.00
2023-02-23T12:44:32.300Z,6.90
2023-02-23T12:47:16.687Z,7.40
2023-02-23T12:49:58.399Z,7.50
2023-02-23T12:52:37.525Z,7.50
2023-02-23T12:55:14.248Z,7.50
2023-02-23T12:57:57.223Z,7.40
2023-02-23T13:00:48.945Z,7.20
2023-02-23T13:03:46.537Z,7.40
2023-02-23T13:06:30.900Z,7.80
2023-02-23T13:09:17.947Z,6.40
2023-02-23T13:12:08.084Z,6.70
2023-02-23T13:14:49.210Z,7.30
2023-02-23T13:17:36.293Z,6.80
2023-02-23T13:20:18.065Z,6.50
2023-02-23T13:23:00.635Z,7.40
2023-02-23T13:25:44.291Z,6.90
2023-02-23T13:28:23.633Z,6.90
2023-02-23T13:30:58.329Z,7.10
2023-02-23T13:33:43.515Z,6.30
2023-02-23T13:36:18.342Z,7.40
2023-02-23T13:39:18.621Z,7.20
2023-02-23T13:42:07.190Z,6.80
2023-02-23T13:44:46.234Z,6.90
2023-02-23T13:47:35.114Z,7.00
2023-02-23T13:50:22.096Z,7.60
2023-02-23T13:52:58.974Z,7.50
2023-02-23T13:55:53.853Z,7.00
2023-02-23T13:58:31.622Z,6.20
2023-02-23T14:01:16.351Z,6.50
2023-02-23T14:03:59.325Z,5.70
2023-02-23T14:06:35.625Z,6.70
2023-02-23T14:09:21.888Z,6.80
2023-02-23T14:12:07.585Z,6.90
2023-02-23T14:14:46.460Z,7.10
2023-02-23T14:17:51.029Z,6.70
2023-02-23T14:20:49.371Z,6.90
2023-02-23T14:23:37.075Z,6.90
2023-02-23T14:26:19.883Z,7.10
2023-02-23T14:29:27.571Z,7.20
2023-02-23T14:32:05.099Z,7.00
2023-02-23T14:34:50.542Z,6.70
2023-02-23T14:37:32.315Z,7.60
2023-02-23T14:40:13.827Z,7.10
2023-02-23T14:42:52.020Z,7.00
2023-02-23T14:45:29.173Z,6.90
2023-02-23T14:48:08.289Z,7.20
2023-02-23T14:50:45.621Z,7.00
2023-02-23T14:53:24.980Z,7.10
2023-02-23T14:56:00.387Z,6.50
2023-02-23T14:58:35.603Z,6.70
2023-02-23T15:01:09.382Z,7.80
2023-02-23T15:03:43.261Z,7.30
2023-02-23T15:06:17.312Z,7.50
2023-02-23T15:08:51.117Z,6.20
2023-02-23T15:11:26.118Z,7.20
2023-02-23T15:14:00.669Z,7.30
2023-02-23T15:16:36.656Z,7.50
2023-02-23T15:19:36.466Z,7.20
2023-02-23T15:22:10.303Z,7.30
2023-02-23T15:24:50.268Z,7.20
2023-02-23T15:27:30.445Z,7.30
2023-02-23T15:30:20.389Z,7.40
2023-02-23T15:33:04.500Z,7.00
2023-02-23T15:35:48.238Z,7.40
2023-02-23T15:38:45.759Z,7.20
2023-02-23T15:41:31.426Z,7.30
2023-02-23T15:44:14.069Z,7.10
2023-02-23T15:46:52.486Z,7.00
2023-02-23T15:49:31.035Z,7.50
2023-02-23T15:54:47.445Z,8.00
2023-02-23T15:57:29.831Z,7.80
2023-02-23T16:00:11.030Z,8.20
2023-02-23T16:02:47.605Z,8.40
2023-02-23T16:05:32.531Z,8.40
2023-02-23T16:08:23.232Z,9.50
2023-02-23T16:11:04.946Z,8.90
2023-02-23T16:13:40.034Z,8.00
2023-02-23T16:16:19.663Z,8.00
2023-02-23T16:19:02.580Z,9.00
2023-02-23T16:21:42.504Z,8.20
2023-02-23T16:24:22.936Z,9.80
2023-02-23T16:27:06.747Z,8.90
2023-02-23T16:29:43.827Z,8.10
2023-02-23T16:32:25.869Z,9.60
2023-02-23T16:35:04.561Z,8.90
2023-02-23T16:37:57.399Z,8.30
2023-02-23T16:40:33.512Z,8.80
2023-02-23T16:43:07.485Z,9.00
2023-02-23T16:45:44.022Z,9.20
2023-02-23T16:48:22.083Z,8.90
2023-02-23T16:50:58.040Z,9.50
2023-02-23T16:53:31.640Z,10.90
2023-02-23T16:56:14.258Z,10.40
2023-02-23T16:58:53.017Z,10.40
2023-02-23T17:04:00.776Z,10.80
2023-02-23T17:06:36.242Z,10.90
2023-02-23T17:09:10.282Z,11.20
2023-02-23T17:11:47.512Z,10.40
2023-02-23T17:14:28.282Z,11.00
2023-02-23T17:17:03.518Z,11.90
2023-02-23T17:19:39.990Z,10.50
2023-02-23T17:22:16.292Z,10.60
2023-02-23T17:24:50.537Z,11.40
2023-02-23T17:27:25.522Z,11.40
2023-02-23T17:30:02.527Z,13.00
2023-02-23T17:32:39.156Z,13.90
2023-02-23T17:35:15.086Z,12.60
2023-02-23T17:37:51.437Z,10.80
2023-02-23T17:40:35.670Z,14.50
2023-02-23T17:43:14.192Z,14.50
2023-02-23T17:45:50.160Z,12.00
2023-02-23T17:48:28.640Z,13.90
2023-02-23T17:51:06.912Z,13.40
2023-02-23T17:53:43.121Z,14.00
2023-02-23T17:56:25.906Z,14.20
2023-02-23T17:59:02.193Z,14.30
2023-02-23T18:01:50.319Z,14.20
2023-02-23T18:04:25.754Z,13.70
2023-02-23T18:07:06.527Z,16.00
2023-02-23T18:09:44.382Z,13.70
2023-02-23T18:12:24.948Z,13.60
2023-02-23T18:15:04.344Z,14.20
2023-02-23T18:17:42.201Z,14.10
2023-02-23T18:20:22.742Z,13.60
2023-02-23T18:23:01.238Z,14.30
2023-02-23T18:25:41.670Z,13.30
2023-02-23T18:28:21.859Z,12.80
2023-02-23T18:31:00.343Z,14.20
2023-02-23T18:33:39.934Z,14.60
2023-02-23T18:36:27.384Z,14.00
2023-02-23T18:39:05.254Z,14.00
2023-02-23T18:41:42.858Z,13.70
2023-02-23T18:44:23.474Z,13.90
2023-02-23T18:46:59.098Z,14.20
2023-02-23T18:49:35.233Z,14.80
2023-02-23T18:52:10.792Z,14.50
2023-02-23T18:54:49.412Z,14.60
2023-02-23T18:57:28.006Z,14.30
2023-02-23T19:00:08.229Z,15.40
2023-02-23T19:02:47.465Z,15.00
2023-02-23T19:05:31.826Z,13.80
2023-02-23T19:08:15.030Z,14.40
2023-02-23T19:11:04.035Z,13.60
2023-02-23T19:13:43.066Z,14.50
2023-02-23T19:16:36.588Z,14.70
2023-02-23T19:19:15.102Z,14.60
2023-02-23T19:22:00.119Z,13.60
2023-02-23T19:24:41.982Z,14.70
2023-02-23T19:27:24.268Z,14.30
2023-02-23T19:30:07.997Z,14.80
2023-02-23T19:32:47.875Z,14.90
2023-02-23T19:35:26.082Z,16.20
2023-02-23T19:38:04.840Z,15.40
2023-02-23T19:40:44.765Z,15.20
2023-02-23T19:43:20.290Z,15.20
2023-02-23T19:46:00.259Z,16.60
2023-02-23T19:48:39.623Z,15.70
2023-02-23T19:51:21.315Z,14.90
2023-02-23T19:54:00.994Z,15.40
2023-02-23T19:56:39.083Z,16.70
2023-02-23T19:59:16.376Z,16.10
2023-02-23T20:01:55.242Z,16.10
2023-02-23T20:04:32.561Z,17.30
2023-02-23T20:07:12.619Z,17.70
2023-02-23T20:09:51.944Z,17.50
2023-02-23T20:12:33.676Z,17.80
2023-02-23T20:15:11.505Z,16.40
2023-02-23T20:17:49.700Z,16.80
2023-02-23T20:20:26.822Z,17.40
2023-02-23T20:23:11.628Z,18.20
2023-02-23T20:25:50.583Z,18.20
2023-02-23T20:28:28.710Z,19.90
2023-02-23T20:31:14.213Z,19.80
2023-02-23T20:33:51.747Z,18.30
2023-02-23T20:36:29.236Z,19.70
2023-02-23T20:39:11.149Z,17.40
2023-02-23T20:41:55.010Z,18.30
2023-02-23T20:44:44.228Z,19.10
2023-02-23T20:47:22.791Z,18.80
2023-02-23T20:50:02.305Z,19.10
2023-02-23T20:52:47.388Z,19.00
2023-02-23T20:55:27.573Z,17.80
2023-02-23T20:58:05.666Z,17.20
2023-02-23T21:00:50.816Z,17.80
2023-02-23T21:03:38.804Z,18.10
2023-02-23T21:06:16.756Z,18.70
2023-02-23T21:09:13.285Z,20.30
2023-02-23T21:11:49.677Z,20.60
2023-02-23T21:14:25.486Z,20.40
2023-02-23T21:17:02.794Z,18.30
2023-02-23T21:19:37.845Z,19.50
2023-02-23T21:22:17.457Z,19.90
2023-02-23T21:24:52.673Z,20.80
2023-02-23T21:27:30.464Z,21.20
2023-02-23T21:30:06.355Z,21.70
2023-02-23T21:32:44.508Z,21.40
2023-02-23T21:35:20.041Z,21.40
2023-02-23T21:37:59.797Z,20.30
2023-02-23T21:40:34.950Z,20.20
2023-02-23T21:43:10.332Z,18.80
2023-02-23T21:45:47.268Z,21.50
2023-02-23T21:48:22.236Z,22.90
2023-02-23T21:51:04.196Z,22.20
2023-02-23T21:53:40.118Z,24.20
2023-02-23T21:58:51.364Z,21.90
2023-02-23T22:01:28.143Z,20.10
2023-02-23T22:04:02.237Z,22.40
2023-02-23T22:06:39.466Z,21.50
2023-02-23T22:09:16.182Z,22.50
2023-02-23T22:11:50.848Z,24.50
2023-02-23T22:14:24.346Z,24.00
2023-02-23T22:16:58.208Z,24.30
2023-02-23T22:19:31.657Z,23.80
2023-02-23T22:22:05.147Z,22.20
2023-02-23T22:24:39.340Z,22.80
2023-02-23T22:27:14.302Z,23.90
2023-02-23T22:29:47.998Z,24.40
2023-02-23T22:32:21.845Z,23.50
2023-02-23T22:34:55.820Z,25.90
2023-02-23T22:37:30.244Z,24.40
2023-02-23T22:40:12.036Z,23.20
2023-02-23T22:42:49.878Z,24.80
2023-02-23T22:45:23.485Z,25.30
2023-02-23T22:48:02.029Z,24.50
2023-02-23T22:53:08.334Z,25.40
2023-02-23T22:55:47.889Z,24.30
2023-02-23T22:58:23.643Z,25.50
2023-02-23T23:01:07.116Z,24.30
2023-02-23T23:03:42.699Z,25.10
2023-02-23T23:06:18.120Z,25.60
2023-02-23T23:08:54.435Z,25.30
2023-02-23T23:11:30.312Z,25.60
2023-02-23T23:14:07.440Z,25.80
2023-02-23T23:16:48.602Z,26.40
2023-02-23T23:19:25.007Z,23.70
2023-02-23T23:22:00.680Z,26.40
2023-02-23T23:24:34.545Z,25.70
2023-02-23T23:27:08.675Z,25.20
2023-02-23T23:29:46.123Z,25.50
2023-02-23T23:32:28.219Z,26.10
2023-02-23T23:35:02.109Z,25.30
2023-02-23T23:37:36.324Z,21.90
2023-02-23T23:40:16.006Z,23.10
2023-02-23T23:42:49.904Z,25.40
2023-02-23T23:45:25.771Z,25.40
2023-02-23T23:47:59.485Z,25.70
2023-02-23T23:50:33.198Z,24.50
2023-02-23T23:53:08.004Z,22.70
2023-02-23T23:55:41.530Z,24.80
2023-02-23T23:58:18.825Z,24.60
